Terminal Aerodrome Forecast
Issued by NWS

Home | Current Version | Previous Version | Text Only | Print | Product List | Glossary On
Versions: 1 2 3 4 5 6 7 8 9 10 11 12 13 14
000
FTUS46 KSEW 241006 AAA
TAFHQM
TAF AMD
KHQM 241006Z 2410/2506 05005KT 5SM BR FEW005
     FM241200 05005KT 1SM BR VV003
     FM241800 07005KT 5SM BR OVC007
     FM242000 21005KT P6SM SCT011 BKN120
     FM250000 VRB03KT P6SM FEW060 BKN120=

USA.gov is the U.S. government's official web portal to all federal, state and local government web resources and services.